Dunbar, KY

6:40 PM CDT on July 24, 2014 (GMT -0500)
Ridgeview Drive (KKYBOWLI7) Elev 650 ft | 36.99 °N, 86.52 °W | Change Station

Current weather conditions updated 2 seconds ago

Clear
Clear
78.7 °F
Feels Like 80 °F
N
2.0
Wind Variable Wind from NNE
Gusts 4.0 mph

Tomorrow is forecast to be Warmer than today.

Today
High -- | Low -- °F
--% Chance of Precip.
Yesterday
High -- | Low -- °F
Precip. -- in
5:45 AM 8:01 PM
Waning Crescent, 4% visible
Pressure 29.97 in
Visibility 10.0 miles
Clouds Clear
Heat Index 80 °F
Dew Point 61 °F
Humidity 54%
Rainfall 0.00 in
Snow Depth Not available.
UV 2 out of 12
Pollen 3.40 out of 12
Air Quality Not available.
Flu Activity Not available.
METAR KBWG 242253Z AUTO VRB04KT 10SM CLR 28/12 A2998 RMK AO2 SLP147 T02780122

More Conditions Fewer Conditions

Pressure 29.97 in
Visibility 10.0 miles
Clouds Clear
Heat Index 80 °F
Dew Point 61 °F
Humidity 54%
Rainfall 0.00 in
Snow Depth Not available.
UV 2 out of 12
Pollen 3.40 out of 12
Air Quality Not available.
Flu Activity Not available.
METAR KBWG 242253Z AUTO VRB04KT 10SM CLR 28/12 A2998 RMK AO2 SLP147 T02780122

More Conditions Fewer Conditions

10-Day Weather Forecast

Almanac

Astronomy

Jul. 24, 2014 Rise Set
Actual Time 5:45 AM CDT 8:01 PM CDT
Civil Twilight 5:15 AM CDT 8:30 PM CDT
Nautical Twilight 4:39 AM CDT 9:06 PM CDT
Astronomical Twilight 4:00 AM CDT 9:45 PM CDT
Moon 3:52 AM CDT 6:16 PM CDT
Length of Visible Light 15h 14m
Length of Day
14h 15m
Tomorrow will be 1m 34s shorter.
Waning Crescent, 4% of the Moon is Illuminated
Today
Waning Crescent
Jul 26
New
Aug 3
First Quarter
Aug 10
Full
Aug 17
Last Quarter

Today's Extremes

State Highs State Lows

Community

WunderPhotos

Upload Photos

1,737,162 photos uploaded!

Nearby

Snow Depth

Station Depth Elevation
No new snow has been reported.

Earthquake Activity

City Distance Mag. Time & Date
No recent earthquake activity has been reported nearby.
Minimum magnitude displayed is 2.5.

Coastal Water Temperatures

Place Temperature
No Stations Reporting

Nearby Weather Stations

Station Location Temp. Heat Index Dew Point Humidity Wind Precip. Elev Updated Type
Ridgeview Drive, Bowling Green, KY 78.7 °F 80 °F 61 °F 54% NNE  at  2.0 mph 0.00 in / hr 650 ft 6:40 PM CDT Rapid Fire
MIDCREST DR., Bowling Green, KY 78.1 °F 79 °F 59 °F 52% WNW  at  0.0 mph 0.00 in / hr 686 ft 6:39 PM CDT Rapid Fire
WNKY NBC & CBS 40 Weather, Bowling Green, KY 82.0 °F 82 °F 56 °F 41% NNW  at  4.0 mph 0.00 in / hr 538 ft 5:20 PM CDT Rapid Fire
Al Bedel Road, Auburn, KY 79.8 °F 80 °F 58 °F 47% North  at  1.0 mph 0.00 in / hr 650 ft 6:40 PM CDT Normal

Show More Stations Show Fewer Stations